createdAt,value
2017-10-03T00:00:24.899Z,99.99
2017-10-03T00:01:05.473Z,99.99
2017-10-03T00:01:46.048Z,99.99
2017-10-03T00:02:26.613Z,99.99
2017-10-03T00:03:07.199Z,99.99
2017-10-03T00:03:47.752Z,99.99
2017-10-03T00:04:28.366Z,99.99
2017-10-03T00:05:09.117Z,99.99
2017-10-03T00:05:49.784Z,99.99
2017-10-03T00:06:30.427Z,99.99
2017-10-03T00:07:11.089Z,99.99
2017-10-03T00:07:51.683Z,99.99
2017-10-03T00:08:32.309Z,99.99
2017-10-03T00:09:12.933Z,99.99
2017-10-03T00:09:53.635Z,99.99
2017-10-03T00:10:34.282Z,99.99
2017-10-03T00:11:14.855Z,99.99
2017-10-03T00:11:55.464Z,99.99
2017-10-03T00:12:36.058Z,99.99
2017-10-03T00:13:16.680Z,99.99
2017-10-03T00:13:57.258Z,99.99
2017-10-03T00:14:37.891Z,99.99
2017-10-03T00:15:18.532Z,99.99
2017-10-03T00:15:59.073Z,99.99
2017-10-03T00:16:39.692Z,99.99
2017-10-03T00:17:20.274Z,99.99
2017-10-03T00:18:00.847Z,99.99
2017-10-03T00:18:41.394Z,99.99
2017-10-03T00:19:21.992Z,99.99
2017-10-03T00:20:02.590Z,99.99
2017-10-03T00:20:43.196Z,99.99
2017-10-03T00:21:23.799Z,99.99
2017-10-03T00:22:04.365Z,99.99
2017-10-03T00:22:44.976Z,99.99
2017-10-03T00:23:25.551Z,99.99
2017-10-03T00:24:06.139Z,99.99
2017-10-03T00:24:46.710Z,99.99
2017-10-03T00:25:27.278Z,99.48
2017-10-03T00:26:07.911Z,99.66
2017-10-03T00:26:48.562Z,99.57
2017-10-03T00:27:29.150Z,99.19
2017-10-03T00:28:09.762Z,99.09
2017-10-03T00:28:50.353Z,98.52
2017-10-03T00:29:30.926Z,98.8
2017-10-03T00:30:11.494Z,98.9
2017-10-03T00:30:52.073Z,98.23
2017-10-03T00:31:32.712Z,98.13
2017-10-03T00:32:13.278Z,98.42
2017-10-03T00:32:53.939Z,98.42
2017-10-03T00:33:34.452Z,98.42
2017-10-03T00:34:15.050Z,98.42
2017-10-03T00:34:55.608Z,98.23
2017-10-03T00:35:36.195Z,98.71
2017-10-03T00:36:16.823Z,98.42
2017-10-03T00:36:57.405Z,98.52
2017-10-03T00:37:37.975Z,98.71
2017-10-03T00:38:18.561Z,98.33
2017-10-03T00:38:59.159Z,98.42
2017-10-03T00:39:39.736Z,98.52
2017-10-03T00:40:20.322Z,98.52
2017-10-03T00:41:00.967Z,98.42
2017-10-03T00:41:41.568Z,98.42
2017-10-03T00:42:22.172Z,98.61
2017-10-03T00:43:02.742Z,98.23
2017-10-03T00:43:43.324Z,98.23
2017-10-03T00:44:23.971Z,98.42
2017-10-03T00:45:04.521Z,98.42
2017-10-03T00:45:48.011Z,98.23
2017-10-03T00:46:28.605Z,98.04
2017-10-03T00:47:09.217Z,98.42
2017-10-03T00:47:49.800Z,98.52
2017-10-03T00:48:30.383Z,98.23
2017-10-03T00:49:10.999Z,98.8
2017-10-03T00:49:51.554Z,98.42
2017-10-03T00:50:32.132Z,98.33
2017-10-03T00:51:12.745Z,98.52
2017-10-03T00:51:53.355Z,98.8
2017-10-03T00:52:33.928Z,98.61
2017-10-03T00:53:14.520Z,98.33
2017-10-03T00:53:55.166Z,98.23
2017-10-03T00:54:35.745Z,98.23
2017-10-03T00:55:16.338Z,98.04
2017-10-03T00:55:57.060Z,98.23
2017-10-03T00:56:37.632Z,99.09
2017-10-03T00:57:18.344Z,98.9
2017-10-03T00:57:58.871Z,98.99
2017-10-03T00:58:39.443Z,99.09
2017-10-03T00:59:20.030Z,99.09
2017-10-03T01:00:00.800Z,98.9
2017-10-03T01:00:41.496Z,99.19
2017-10-03T01:01:22.060Z,99.09
2017-10-03T01:02:02.791Z,99.19
2017-10-03T01:02:43.402Z,98.99
2017-10-03T01:03:23.970Z,99.09
2017-10-03T01:04:04.643Z,99.28
2017-10-03T01:04:45.272Z,99.76
2017-10-03T01:05:25.843Z,99.95
2017-10-03T01:06:06.417Z,99.76
2017-10-03T01:06:47.039Z,99.76
2017-10-03T01:07:27.670Z,99.95
2017-10-03T01:08:08.303Z,99.95
2017-10-03T01:08:48.845Z,99.66
2017-10-03T01:09:29.420Z,99.66
2017-10-03T01:10:09.988Z,99.48
2017-10-03T01:10:50.591Z,99.66
2017-10-03T01:11:31.219Z,99.48
2017-10-03T01:12:11.807Z,99.99
2017-10-03T01:12:52.432Z,99.99
2017-10-03T01:13:33.033Z,99.99
2017-10-03T01:14:13.602Z,99.99
2017-10-03T01:14:54.188Z,99.66
2017-10-03T01:15:34.829Z,99.99
2017-10-03T01:16:15.357Z,99.85
2017-10-03T01:16:55.959Z,99.99
2017-10-03T01:17:36.623Z,99.95
2017-10-03T01:18:17.226Z,99.99
2017-10-03T01:18:57.887Z,99.99
2017-10-03T01:19:38.438Z,99.99
2017-10-03T01:20:19.053Z,99.99
2017-10-03T01:20:59.694Z,99.99
2017-10-03T01:21:40.311Z,99.99
2017-10-03T01:22:20.893Z,99.99
2017-10-03T01:23:01.538Z,99.99
2017-10-03T01:23:42.094Z,99.99
2017-10-03T01:24:22.742Z,99.99
2017-10-03T01:25:03.302Z,99.99
2017-10-03T01:25:43.929Z,99.99
2017-10-03T01:26:24.461Z,99.99
2017-10-03T01:27:05.068Z,99.99
2017-10-03T01:27:45.690Z,99.99
2017-10-03T01:28:26.281Z,99.99
2017-10-03T01:29:06.885Z,99.99
2017-10-03T01:29:47.453Z,99.99
2017-10-03T01:30:28.038Z,99.99
2017-10-03T01:31:08.643Z,99.99
2017-10-03T01:31:49.246Z,99.99
2017-10-03T01:32:29.831Z,99.99
2017-10-03T01:33:10.424Z,99.99
2017-10-03T01:33:51.034Z,99.99
2017-10-03T01:34:31.627Z,99.99
2017-10-03T01:35:12.231Z,99.99
2017-10-03T01:35:52.846Z,99.99
2017-10-03T01:36:33.487Z,99.99
2017-10-03T01:37:14.050Z,99.99
2017-10-03T01:37:54.637Z,99.99
2017-10-03T01:38:35.259Z,99.99
2017-10-03T01:39:15.818Z,99.99
2017-10-03T01:39:56.409Z,99.99
2017-10-03T01:40:37.025Z,99.99
2017-10-03T01:41:17.595Z,99.99
2017-10-03T01:41:58.235Z,99.99
2017-10-03T01:42:38.805Z,99.99
2017-10-03T01:43:19.363Z,99.99
2017-10-03T01:43:59.972Z,99.99
2017-10-03T01:44:40.588Z,99.99
2017-10-03T01:45:21.170Z,99.99
2017-10-03T01:46:01.750Z,99.99
2017-10-03T01:46:42.445Z,99.99
2017-10-03T01:47:23.004Z,99.99
2017-10-03T01:48:03.589Z,99.99
2017-10-03T01:48:44.166Z,99.99
2017-10-03T01:49:24.765Z,99.99
2017-10-03T01:50:05.354Z,99.99
2017-10-03T01:50:45.935Z,99.62
2017-10-03T01:51:26.540Z,99.8
2017-10-03T01:52:07.137Z,99.99
2017-10-03T01:52:47.773Z,99.8
2017-10-03T01:53:28.365Z,99.99
2017-10-03T01:54:08.932Z,99.99
2017-10-03T01:54:49.602Z,99.9
2017-10-03T01:55:30.184Z,99.8
2017-10-03T01:56:10.753Z,99.8
2017-10-03T01:56:51.415Z,99.99
2017-10-03T01:57:31.997Z,99.99
2017-10-03T01:58:12.616Z,99.99
2017-10-03T01:58:53.248Z,99.99
2017-10-03T01:59:33.872Z,99.99
2017-10-03T02:00:14.462Z,99.8
2017-10-03T02:00:55.140Z,99.99
2017-10-03T02:01:35.684Z,99.99
2017-10-03T02:02:16.312Z,99.99
2017-10-03T02:02:56.958Z,99.99
2017-10-03T02:03:37.549Z,99.99
2017-10-03T02:04:18.100Z,99.99
2017-10-03T02:04:58.733Z,99.8
2017-10-03T02:05:39.269Z,99.99
2017-10-03T02:06:19.874Z,99.99
2017-10-03T02:07:00.464Z,99.99
2017-10-03T02:07:41.039Z,99.99
2017-10-03T02:08:21.675Z,99.62
2017-10-03T02:09:02.325Z,99.52
2017-10-03T02:09:42.950Z,99.52
2017-10-03T02:10:23.517Z,99.8
2017-10-03T02:11:04.122Z,99.62
2017-10-03T02:11:44.765Z,99.9
2017-10-03T02:12:25.442Z,99.62
2017-10-03T02:13:06.045Z,99.62
2017-10-03T02:13:46.645Z,99.52
2017-10-03T02:14:27.282Z,99.99
2017-10-03T02:15:07.849Z,99.9
2017-10-03T02:15:48.463Z,99.99
2017-10-03T02:16:29.102Z,99.9
2017-10-03T02:17:09.688Z,99.99
2017-10-03T02:17:50.286Z,99.99
2017-10-03T02:18:30.866Z,99.99
2017-10-03T02:19:11.509Z,99.99
2017-10-03T02:19:52.083Z,99.9
2017-10-03T02:20:32.691Z,99.8
2017-10-03T02:21:13.312Z,99.99
2017-10-03T02:21:53.927Z,99.99
2017-10-03T02:22:34.495Z,99.9
2017-10-03T02:23:15.135Z,99.99
2017-10-03T02:23:55.739Z,99.9
2017-10-03T02:24:36.340Z,99.99
2017-10-03T02:25:16.935Z,99.99
2017-10-03T02:25:57.554Z,99.99
2017-10-03T02:26:38.221Z,99.9
2017-10-03T02:27:18.799Z,99.99
2017-10-03T02:27:59.361Z,99.99
2017-10-03T02:28:39.962Z,99.99
2017-10-03T02:29:20.556Z,99.99
2017-10-03T02:30:01.155Z,99.99
2017-10-03T02:30:41.815Z,99.8
2017-10-03T02:31:22.448Z,99.99
2017-10-03T02:32:03.016Z,99.99
2017-10-03T02:32:43.600Z,99.99
2017-10-03T02:33:24.194Z,99.99
2017-10-03T02:34:05.240Z,99.99
2017-10-03T02:34:45.821Z,99.99
2017-10-03T02:35:26.417Z,99.99
2017-10-03T02:36:07.036Z,99.99
2017-10-03T02:36:47.619Z,99.99
2017-10-03T02:37:28.256Z,99.99
2017-10-03T02:38:08.850Z,99.62
2017-10-03T02:38:49.547Z,99.99
2017-10-03T02:39:30.128Z,99.99
2017-10-03T02:40:10.798Z,99.71
2017-10-03T02:40:51.334Z,99.99
2017-10-03T02:41:31.910Z,99.99
2017-10-03T02:42:12.504Z,99.8
2017-10-03T02:42:53.137Z,99.99
2017-10-03T02:43:33.702Z,99.99
2017-10-03T02:44:14.332Z,99.99
2017-10-03T02:44:54.909Z,99.99
2017-10-03T02:45:35.501Z,99.99
2017-10-03T02:46:16.078Z,99.99
2017-10-03T02:46:56.659Z,99.99
2017-10-03T02:47:37.272Z,99.99
2017-10-03T02:48:17.839Z,99.99
2017-10-03T02:48:58.391Z,99.99
2017-10-03T02:49:38.962Z,99.99
2017-10-03T02:50:19.536Z,99.99
2017-10-03T02:51:00.098Z,99.99
2017-10-03T02:51:40.684Z,99.99
2017-10-03T02:52:21.262Z,99.99
2017-10-03T02:53:01.856Z,99.99
2017-10-03T02:53:42.494Z,99.99
2017-10-03T02:54:23.094Z,99.99
2017-10-03T02:55:03.676Z,99.99
2017-10-03T02:55:44.243Z,99.99
2017-10-03T02:56:24.803Z,99.8
2017-10-03T02:57:05.390Z,99.8
2017-10-03T02:57:45.983Z,99.8
2017-10-03T02:58:26.545Z,99.99
2017-10-03T02:59:07.162Z,99.9
2017-10-03T02:59:47.738Z,99.99
2017-10-03T03:00:28.360Z,99.99
2017-10-03T03:01:08.935Z,99.99
2017-10-03T03:01:49.514Z,99.99
2017-10-03T03:02:30.109Z,99.99
2017-10-03T03:03:10.704Z,99.99
2017-10-03T03:03:51.271Z,99.99
2017-10-03T03:04:31.839Z,99.99
2017-10-03T03:05:12.426Z,99.99
2017-10-03T03:05:52.996Z,99.99
2017-10-03T03:06:33.573Z,99.99
2017-10-03T03:07:14.203Z,99.99
2017-10-03T03:07:54.773Z,99.99
2017-10-03T03:08:35.357Z,99.99
2017-10-03T03:09:15.947Z,99.99
2017-10-03T03:09:56.530Z,99.99
2017-10-03T03:10:37.225Z,99.99
2017-10-03T03:11:17.824Z,99.99
2017-10-03T03:11:58.481Z,99.99
2017-10-03T03:12:39.055Z,99.99
2017-10-03T03:13:19.621Z,99.99
2017-10-03T03:14:00.207Z,99.99
2017-10-03T03:14:40.822Z,99.99
2017-10-03T03:15:21.460Z,99.99
2017-10-03T03:16:02.026Z,99.99
2017-10-03T03:16:42.633Z,99.99
2017-10-03T03:17:23.203Z,99.99
2017-10-03T03:18:03.845Z,99.99
2017-10-03T03:18:44.453Z,99.99
2017-10-03T03:19:25.033Z,99.99
2017-10-03T03:20:05.678Z,99.99
2017-10-03T03:20:46.258Z,99.99
2017-10-03T03:21:26.833Z,99.99
2017-10-03T03:22:07.436Z,99.99
2017-10-03T03:22:48.060Z,99.99
2017-10-03T03:23:28.650Z,99.99
2017-10-03T03:24:09.269Z,99.99
2017-10-03T03:24:49.891Z,99.71
2017-10-03T03:25:30.522Z,99.71
2017-10-03T03:26:11.134Z,99.8
2017-10-03T03:26:51.702Z,99.52
2017-10-03T03:27:32.268Z,99.62
2017-10-03T03:28:12.881Z,99.99
2017-10-03T03:28:53.463Z,99.99
2017-10-03T03:29:34.051Z,99.99
2017-10-03T03:30:14.669Z,99.71
2017-10-03T03:30:55.292Z,99.71
2017-10-03T03:31:35.948Z,99.33
2017-10-03T03:32:16.586Z,99.99
2017-10-03T03:32:57.175Z,99.99
2017-10-03T03:33:37.762Z,99.99
2017-10-03T03:34:18.384Z,99.99
2017-10-03T03:34:58.993Z,99.99
2017-10-03T03:35:39.683Z,99.99
2017-10-03T03:36:20.253Z,99.9
2017-10-03T03:37:00.829Z,99.99
2017-10-03T03:37:41.415Z,99.99
2017-10-03T03:38:22.014Z,99.99
2017-10-03T03:39:02.586Z,99.99
2017-10-03T03:39:43.169Z,99.99
2017-10-03T03:40:23.809Z,99.99
2017-10-03T03:41:04.404Z,99.99
2017-10-03T03:41:45.000Z,99.99
2017-10-03T03:42:25.607Z,99.85
2017-10-03T03:43:06.193Z,99.99
2017-10-03T03:43:46.889Z,99.9
2017-10-03T03:44:27.462Z,99.99
2017-10-03T03:45:08.020Z,99.99
2017-10-03T03:45:48.628Z,99.99
2017-10-03T03:46:29.200Z,99.99
2017-10-03T03:47:09.771Z,99.99
2017-10-03T03:47:50.345Z,99.99
2017-10-03T03:48:30.942Z,99.9
2017-10-03T03:49:11.492Z,99.99
2017-10-03T03:49:52.052Z,99.99
2017-10-03T03:50:32.615Z,99.99
2017-10-03T03:51:13.179Z,99.99
2017-10-03T03:51:53.759Z,99.99
2017-10-03T03:52:34.327Z,99.8
2017-10-03T03:53:14.887Z,99.85
2017-10-03T03:53:55.449Z,99.99
2017-10-03T03:54:36.012Z,99.99
2017-10-03T03:55:16.579Z,99.99
2017-10-03T03:55:57.143Z,99.99
2017-10-03T03:56:37.729Z,99.99
2017-10-03T03:57:18.349Z,99.95
2017-10-03T03:57:58.912Z,99.95
2017-10-03T03:58:39.487Z,99.95
2017-10-03T03:59:20.060Z,99.99
2017-10-03T04:00:00.653Z,99.99
2017-10-03T04:00:41.248Z,99.99
2017-10-03T04:01:21.819Z,99.99
2017-10-03T04:02:02.389Z,99.99
2017-10-03T04:02:42.953Z,99.99
2017-10-03T04:03:23.523Z,99.95
2017-10-03T04:04:04.119Z,99.99
2017-10-03T04:04:44.710Z,99.99
2017-10-03T04:05:25.285Z,99.99
2017-10-03T04:06:05.868Z,99.99
2017-10-03T04:06:46.465Z,99.99
2017-10-03T04:07:27.060Z,99.95
2017-10-03T04:08:07.617Z,99.99
2017-10-03T04:08:48.186Z,99.95
2017-10-03T04:09:28.778Z,99.99
2017-10-03T04:10:09.349Z,99.95
2017-10-03T04:10:49.925Z,99.95
2017-10-03T04:11:30.489Z,99.99
2017-10-03T04:12:11.055Z,99.99
2017-10-03T04:12:51.636Z,99.99
2017-10-03T04:13:32.204Z,99.99
2017-10-03T04:14:12.785Z,99.99
2017-10-03T04:14:53.391Z,99.99
2017-10-03T04:15:33.996Z,99.99
2017-10-03T04:16:14.573Z,99.99
2017-10-03T04:16:55.152Z,99.99
2017-10-03T04:17:35.769Z,99.99
2017-10-03T04:18:16.339Z,99.99
2017-10-03T04:18:56.916Z,99.99
2017-10-03T04:19:37.485Z,99.99
2017-10-03T04:20:18.122Z,99.99
2017-10-03T04:20:58.691Z,99.99
2017-10-03T04:21:39.266Z,99.99
2017-10-03T04:22:19.892Z,99.99
2017-10-03T04:23:00.456Z,99.99
2017-10-03T04:23:41.052Z,99.99
2017-10-03T04:24:21.733Z,99.99
2017-10-03T04:25:02.284Z,99.99
2017-10-03T04:25:42.886Z,99.99
2017-10-03T04:26:23.480Z,99.99
2017-10-03T04:27:04.071Z,99.99
2017-10-03T04:27:44.659Z,99.99
2017-10-03T04:28:25.299Z,99.99
2017-10-03T04:29:06.043Z,99.99
2017-10-03T04:29:46.505Z,99.99
2017-10-03T04:30:27.113Z,99.99
2017-10-03T04:31:07.748Z,99.99
2017-10-03T04:31:48.298Z,99.99
2017-10-03T04:32:28.877Z,99.99
2017-10-03T04:33:09.512Z,99.99
2017-10-03T04:33:50.073Z,99.99
2017-10-03T04:34:30.726Z,99.99
2017-10-03T04:35:11.383Z,99.99
2017-10-03T04:35:52.032Z,99.99
2017-10-03T04:36:32.828Z,99.99
2017-10-03T04:37:13.383Z,99.99
2017-10-03T04:37:54.085Z,99.99
2017-10-03T04:38:34.702Z,99.99
2017-10-03T04:39:15.316Z,99.99
2017-10-03T04:39:55.903Z,99.99
2017-10-03T04:40:36.511Z,99.99
2017-10-03T04:41:17.124Z,99.99
2017-10-03T04:41:57.719Z,99.99
2017-10-03T04:42:38.341Z,99.99
2017-10-03T04:43:18.924Z,99.99
2017-10-03T04:43:59.516Z,99.99
2017-10-03T04:44:40.096Z,99.99
2017-10-03T04:45:20.727Z,99.99
2017-10-03T04:46:01.333Z,99.99
2017-10-03T04:46:41.911Z,99.99
2017-10-03T04:47:22.587Z,99.99
2017-10-03T04:48:03.181Z,99.99
2017-10-03T04:48:43.897Z,99.99
2017-10-03T04:49:24.474Z,99.99
2017-10-03T04:50:05.042Z,99.99
2017-10-03T04:50:45.610Z,99.99
2017-10-03T04:51:26.162Z,99.99
2017-10-03T04:52:06.751Z,99.99
2017-10-03T04:52:47.301Z,99.99
2017-10-03T04:53:27.890Z,99.99
2017-10-03T04:54:08.458Z,99.99
2017-10-03T04:54:50.783Z,99.99
2017-10-03T04:55:31.413Z,99.99
2017-10-03T04:56:14.215Z,99.99
2017-10-03T04:57:05.057Z,99.99
2017-10-03T04:57:49.548Z,99.99
2017-10-03T04:58:40.032Z,99.99
2017-10-03T04:59:30.097Z,99.99
2017-10-03T05:00:22.021Z,99.99
2017-10-03T05:01:04.146Z,99.99
2017-10-03T05:01:44.967Z,99.99
2017-10-03T05:02:29.192Z,99.99
2017-10-03T05:04:33.653Z,99.99
2017-10-03T05:05:16.588Z,99.99
2017-10-03T05:05:58.191Z,99.99
2017-10-03T05:06:45.106Z,99.99
2017-10-03T05:07:27.889Z,99.99
2017-10-03T05:08:09.073Z,99.99
2017-10-03T05:08:51.679Z,99.99
2017-10-03T05:09:37.333Z,99.99
2017-10-03T05:10:21.667Z,99.99
2017-10-03T05:11:04.071Z,99.99
2017-10-03T05:11:48.258Z,99.99
2017-10-03T05:12:30.727Z,99.99
2017-10-03T05:13:15.013Z,99.99
2017-10-03T05:13:59.900Z,99.99
2017-10-03T05:14:46.436Z,99.99
2017-10-03T05:17:09.026Z,99.99
2017-10-03T05:17:51.061Z,99.99
2017-10-03T05:18:35.370Z,99.99
2017-10-03T05:19:17.869Z,99.99
2017-10-03T05:20:03.875Z,99.99
2017-10-03T05:20:47.392Z,99.99
2017-10-03T05:21:34.608Z,99.99
2017-10-03T05:22:16.227Z,99.99
2017-10-03T05:22:57.428Z,99.99
2017-10-03T05:23:42.699Z,99.99
2017-10-03T05:24:25.458Z,99.99
2017-10-03T05:25:14.267Z,99.99
2017-10-03T05:26:01.776Z,99.99
2017-10-03T05:26:48.402Z,99.99
2017-10-03T05:27:36.004Z,99.99
2017-10-03T05:28:28.434Z,99.99
2017-10-03T05:29:14.543Z,99.99
2017-10-03T05:29:57.079Z,99.99
2017-10-03T05:30:39.203Z,99.99
2017-10-03T05:31:21.509Z,99.99
2017-10-03T05:32:05.427Z,99.99
2017-10-03T05:32:46.672Z,99.99
2017-10-03T05:33:27.324Z,99.99
2017-10-03T05:34:08.352Z,99.99
2017-10-03T05:34:50.897Z,99.99
2017-10-03T05:35:39.038Z,99.99
2017-10-03T05:36:24.838Z,99.99
2017-10-03T05:37:05.414Z,99.99
2017-10-03T05:37:45.977Z,99.99
2017-10-03T05:38:26.544Z,99.99
2017-10-03T05:39:07.104Z,99.99
2017-10-03T05:39:47.693Z,99.99
2017-10-03T05:40:28.325Z,99.99
2017-10-03T05:41:08.927Z,99.37
2017-10-03T05:41:49.532Z,99.76
2017-10-03T05:42:30.122Z,99.57
2017-10-03T05:43:10.699Z,99.76
2017-10-03T05:43:51.316Z,99.76
2017-10-03T05:44:31.876Z,99.85
2017-10-03T05:45:12.430Z,99.37
2017-10-03T05:45:53.002Z,99.28
2017-10-03T05:46:33.587Z,99.85
2017-10-03T05:47:14.160Z,99.37
2017-10-03T05:47:54.723Z,99.76
2017-10-03T05:48:35.290Z,99.57
2017-10-03T05:49:15.854Z,99.95
2017-10-03T05:49:56.455Z,99.57
2017-10-03T05:50:37.052Z,99.57
2017-10-03T05:51:17.618Z,99.85
2017-10-03T05:51:58.221Z,99.37
2017-10-03T05:52:38.793Z,99.47
2017-10-03T05:53:19.426Z,99.37
2017-10-03T05:54:00.021Z,99.47
2017-10-03T05:54:40.577Z,99.47
2017-10-03T05:55:21.160Z,99.76
2017-10-03T05:56:01.718Z,99.18
2017-10-03T05:56:42.331Z,99.08
2017-10-03T05:57:22.914Z,99.18
2017-10-03T05:58:03.490Z,98.8
2017-10-03T05:58:44.075Z,98.8
2017-10-03T05:59:24.661Z,98.8
2017-10-03T06:00:05.243Z,98.71
2017-10-03T06:00:45.838Z,99.18
2017-10-03T06:01:26.414Z,98.71
2017-10-03T06:02:06.984Z,98.99
2017-10-03T06:02:47.662Z,98.8
2017-10-03T06:03:28.247Z,99.18
2017-10-03T06:04:08.836Z,98.9
2017-10-03T06:04:49.457Z,98.61
2017-10-03T06:05:30.006Z,98.9
2017-10-03T06:06:10.606Z,98.71
2017-10-03T06:06:51.192Z,98.8
2017-10-03T06:07:31.755Z,98.71
2017-10-03T06:08:12.343Z,99.37
2017-10-03T06:08:53.015Z,98.8
2017-10-03T06:09:33.618Z,98.61
2017-10-03T06:10:14.206Z,98.8
2017-10-03T06:10:54.786Z,98.8
2017-10-03T06:11:35.481Z,98.66
2017-10-03T06:12:16.087Z,98.61
2017-10-03T06:12:57.328Z,98.99
2017-10-03T06:13:37.927Z,98.85
2017-10-03T06:14:18.525Z,98.99
2017-10-03T06:14:59.092Z,98.66
2017-10-03T06:15:39.683Z,98.85
2017-10-03T06:16:20.286Z,98.9
2017-10-03T06:17:00.857Z,98.99
2017-10-03T06:17:41.407Z,98.71
2017-10-03T06:18:21.979Z,98.8
2017-10-03T06:19:02.550Z,98.8
2017-10-03T06:19:43.143Z,99.04
2017-10-03T06:20:23.698Z,98.52
2017-10-03T06:21:04.268Z,98.32
2017-10-03T06:21:44.866Z,98.28
2017-10-03T06:22:25.531Z,98.23
2017-10-03T06:23:06.107Z,99.08
2017-10-03T06:23:46.667Z,99.04
2017-10-03T06:24:27.239Z,98.99
2017-10-03T06:25:07.823Z,98.85
2017-10-03T06:25:48.410Z,98.99
2017-10-03T06:26:29.030Z,98.85
2017-10-03T06:27:09.607Z,99.14
2017-10-03T06:27:50.200Z,98.75
2017-10-03T06:28:30.789Z,98.9
2017-10-03T06:29:11.411Z,99.04
2017-10-03T06:29:51.976Z,98.66
2017-10-03T06:30:32.566Z,98.57
2017-10-03T06:31:13.163Z,98.85
2017-10-03T06:31:53.740Z,98.85
2017-10-03T06:32:34.320Z,98.94
2017-10-03T06:33:14.910Z,98.75
2017-10-03T06:33:55.520Z,98.75
2017-10-03T06:34:36.103Z,98.47
2017-10-03T06:35:16.662Z,98.47
2017-10-03T06:35:57.224Z,98.18
2017-10-03T06:36:37.780Z,98.47
2017-10-03T06:37:18.352Z,98.37
2017-10-03T06:37:58.939Z,98.47
2017-10-03T06:38:39.493Z,98.47
2017-10-03T06:39:20.077Z,98.47
2017-10-03T06:40:00.633Z,98.37
2017-10-03T06:40:41.187Z,98.47
2017-10-03T06:41:21.745Z,97.8
2017-10-03T06:42:02.334Z,97.32
2017-10-03T06:42:42.922Z,97.52
2017-10-03T06:43:23.489Z,97.42
2017-10-03T06:44:04.047Z,97.99
2017-10-03T06:44:44.606Z,98.08
2017-10-03T06:45:25.177Z,97.99
2017-10-03T06:46:05.740Z,97.99
2017-10-03T06:46:46.316Z,97.99
2017-10-03T06:47:26.899Z,97.52
2017-10-03T06:48:07.487Z,97.61
2017-10-03T06:48:48.243Z,97.71
2017-10-03T06:49:28.800Z,97.99
2017-10-03T06:50:09.438Z,98.08
2017-10-03T06:50:50.051Z,98.08
2017-10-03T06:51:30.645Z,97.99
2017-10-03T06:52:11.213Z,97.89
2017-10-03T06:52:51.813Z,99.62
2017-10-03T06:53:32.397Z,99.99
2017-10-03T06:54:12.969Z,99.99
2017-10-03T06:54:53.542Z,99.99
2017-10-03T06:55:34.139Z,99.99
2017-10-03T06:56:14.738Z,99.99
2017-10-03T06:56:55.303Z,99.99
2017-10-03T06:57:35.895Z,99.95
2017-10-03T06:58:16.449Z,99.52
2017-10-03T06:58:57.038Z,98.18
2017-10-03T06:59:37.609Z,97.8
2017-10-03T07:00:18.229Z,97.9
2017-10-03T07:00:58.789Z,97.61
2017-10-03T07:01:39.360Z,96.75
2017-10-03T07:02:19.951Z,96.18
2017-10-03T07:03:00.525Z,96.13
2017-10-03T07:03:41.095Z,95.84
2017-10-03T07:04:21.647Z,95.17
2017-10-03T07:05:02.283Z,95.07
2017-10-03T07:05:42.815Z,94.6
2017-10-03T07:06:23.450Z,93.64
2017-10-03T07:07:04.045Z,93.74
2017-10-03T07:07:44.615Z,93.64
2017-10-03T07:08:25.250Z,93.21
2017-10-03T07:09:05.831Z,92.97
2017-10-03T07:09:46.414Z,92.73
2017-10-03T07:10:27.005Z,92.35
2017-10-03T07:11:07.590Z,91.97
2017-10-03T07:11:48.146Z,91.87
2017-10-03T07:12:28.722Z,91.11
2017-10-03T07:13:09.310Z,90.63
2017-10-03T07:13:49.903Z,90.15
2017-10-03T07:14:30.495Z,90.72
2017-10-03T07:15:11.052Z,90.82
2017-10-03T07:15:51.666Z,90.63
2017-10-03T07:16:32.323Z,89.76
2017-10-03T07:17:12.886Z,88.9
2017-10-03T07:17:53.452Z,89.04
2017-10-03T07:18:34.017Z,89.33
2017-10-03T07:19:14.617Z,88.66
2017-10-03T07:19:55.219Z,88.66
2017-10-03T07:20:35.765Z,88.09
2017-10-03T07:21:16.344Z,87.8
2017-10-03T07:21:56.917Z,87.7
2017-10-03T07:22:37.528Z,87.61
2017-10-03T07:23:18.103Z,87.9
2017-10-03T07:23:58.723Z,87.61
2017-10-03T07:24:39.370Z,87.99
2017-10-03T07:25:19.992Z,87.7
2017-10-03T07:26:00.632Z,87.61
2017-10-03T07:26:41.158Z,87.32
2017-10-03T07:27:21.734Z,87.13
2017-10-03T07:28:02.377Z,86.94
2017-10-03T07:28:43.043Z,87.32
2017-10-03T07:29:23.619Z,86.84
2017-10-03T07:30:04.197Z,86.94
2017-10-03T07:30:44.756Z,87.13
2017-10-03T07:31:25.330Z,87.13
2017-10-03T07:32:05.924Z,87.32
2017-10-03T07:32:46.508Z,87.13
2017-10-03T07:33:27.079Z,86.46
2017-10-03T07:34:07.682Z,86.88
2017-10-03T07:34:48.266Z,86.5
2017-10-03T07:35:28.829Z,86.6
2017-10-03T07:36:09.394Z,86.02
2017-10-03T07:36:49.991Z,86.02
2017-10-03T07:37:30.581Z,85.45
2017-10-03T07:38:11.224Z,85.64
2017-10-03T07:38:51.817Z,85.06
2017-10-03T07:39:32.394Z,84.68
2017-10-03T07:40:13.017Z,84.83
2017-10-03T07:40:53.557Z,84.83
2017-10-03T07:41:34.115Z,84.74
2017-10-03T07:42:14.805Z,84.92
2017-10-03T07:42:55.302Z,85.21
2017-10-03T07:43:35.877Z,85.31
2017-10-03T07:44:16.456Z,85.55
2017-10-03T07:44:57.030Z,86.08
2017-10-03T07:45:37.688Z,87.13
2017-10-03T07:46:18.279Z,87.51
2017-10-03T07:46:58.846Z,87.32
2017-10-03T07:47:39.424Z,86.84
2017-10-03T07:48:20.003Z,86.46
2017-10-03T07:49:00.590Z,86.46
2017-10-03T07:49:41.200Z,85.6
2017-10-03T07:50:21.767Z,85.31
2017-10-03T07:51:02.332Z,85.5
2017-10-03T07:51:42.905Z,85.69
2017-10-03T07:52:23.485Z,85.69
2017-10-03T07:53:04.049Z,85.79
2017-10-03T07:53:44.608Z,85.65
2017-10-03T07:54:25.177Z,85.6
2017-10-03T07:55:05.756Z,85.75
2017-10-03T07:55:46.338Z,86.13
2017-10-03T07:56:26.936Z,85.84
2017-10-03T07:57:07.513Z,85.84
2017-10-03T07:57:48.113Z,86.22
2017-10-03T07:58:28.689Z,86.41
2017-10-03T07:59:09.260Z,86.9
2017-10-03T07:59:49.828Z,87.66
2017-10-03T08:00:30.384Z,87.62
2017-10-03T08:01:10.954Z,88.19
2017-10-03T08:01:51.529Z,88.57
2017-10-03T08:02:32.108Z,88.38
2017-10-03T08:03:12.671Z,88.67
2017-10-03T08:03:53.237Z,88.95
2017-10-03T08:04:33.797Z,88.57
2017-10-03T08:05:14.372Z,88
2017-10-03T08:05:54.982Z,87.9
2017-10-03T08:06:35.552Z,88.09
2017-10-03T08:07:16.138Z,87.76
2017-10-03T08:07:56.713Z,88.34
2017-10-03T08:08:37.269Z,88.53
2017-10-03T08:09:17.838Z,88.43
2017-10-03T08:09:58.410Z,88.91
2017-10-03T08:10:39.023Z,89.01
2017-10-03T08:11:19.618Z,89.87
2017-10-03T08:12:00.204Z,89.87
2017-10-03T08:12:41.087Z,89.67
2017-10-03T08:13:21.812Z,89.67
2017-10-03T08:14:02.408Z,89.87
2017-10-03T08:14:43.261Z,89.77
2017-10-03T08:15:23.697Z,90.06
2017-10-03T08:16:04.295Z,91.02
2017-10-03T08:16:44.863Z,90.63
2017-10-03T08:17:25.897Z,90.16
2017-10-03T08:18:06.464Z,89.96
2017-10-03T08:18:47.033Z,90.34
2017-10-03T08:19:27.616Z,90.73
2017-10-03T08:20:08.227Z,90.63
2017-10-03T08:20:48.797Z,90.73
2017-10-03T08:21:29.988Z,91.3
2017-10-03T08:22:10.575Z,91.11
2017-10-03T08:22:51.155Z,91.2
2017-10-03T08:23:31.780Z,91.11
2017-10-03T08:24:12.340Z,91.2
2017-10-03T08:24:52.977Z,91.2
2017-10-03T08:25:33.753Z,91.2
2017-10-03T08:26:14.219Z,90.92
2017-10-03T08:26:54.798Z,90.73
2017-10-03T08:27:35.349Z,90.82
2017-10-03T08:28:15.950Z,90.44
2017-10-03T08:28:56.523Z,90.92
2017-10-03T08:29:37.137Z,90.53
2017-10-03T08:30:17.759Z,90.25
2017-10-03T08:30:58.846Z,90.77
2017-10-03T08:31:39.438Z,91.25
2017-10-03T08:32:20.392Z,90.58
2017-10-03T08:33:01.001Z,90.58
2017-10-03T08:33:41.608Z,90.87
2017-10-03T08:34:22.163Z,90.67
2017-10-03T08:35:02.755Z,90.1
2017-10-03T08:35:43.382Z,89.05
2017-10-03T08:36:23.971Z,88.76
2017-10-03T08:37:04.544Z,88.9
2017-10-03T08:37:45.131Z,88.81
2017-10-03T08:38:25.696Z,88.33
2017-10-03T08:39:06.272Z,88.13
2017-10-03T08:39:47.145Z,87.85
2017-10-03T08:40:27.717Z,88.52
2017-10-03T08:41:08.294Z,88.23
2017-10-03T08:41:48.877Z,88.13
2017-10-03T08:42:29.439Z,88.04
2017-10-03T08:43:10.012Z,87.52
2017-10-03T08:43:50.615Z,88.23
2017-10-03T08:45:13.826Z,88
2017-10-03T08:45:54.442Z,87.62
2017-10-03T08:46:35.042Z,87.62
2017-10-03T08:47:15.621Z,87.9
2017-10-03T08:47:56.239Z,88.76
2017-10-03T08:48:36.876Z,88.95
2017-10-03T08:49:17.575Z,88.38
2017-10-03T08:49:58.537Z,88.67
2017-10-03T08:50:39.271Z,88.76
2017-10-03T08:51:21.084Z,88.29
2017-10-03T08:52:00.767Z,88.48